| time (UTC) | temp F | wind direction | speed knots | gust knots | rain 1hr in | rain 24hr in | rain mn in | humidity % | barometer mb |
| 20260906123050 | 76 | 234 | 0.0 | 0.0 | 0.00 | 0.00 | 0.00 | 83 | 1016.5 |
| 20260906121556 | 75 | 234 | 0.0 | 0.0 | 0.00 | 0.00 | 0.00 | 83 | 1016.4 |
| 20260906120005 | 75 | 234 | 0.0 | 0.0 | 0.00 | 0.00 | 0.00 | 84 | 1016.2 |
| 20260906114522 | 75 | 234 | 0.0 | 0.0 | 0.00 | 0.00 | 0.00 | 83 | 1016.0 |
| 20260906113025 | 75 | 234 | 0.0 | 6.1 | 0.00 | 0.00 | 0.00 | 83 | 1015.8 |
| 20260906111552 | 74 | 234 | 0.0 | 0.0 | 0.00 | 0.00 | 0.00 | 84 | 1015.6 |
| 20260906110053 | 74 | 234 | 0.0 | 0.9 | 0.00 | 0.00 | 0.00 | 84 | 1015.5 |
| 20260906104515 | 75 | 234 | 0.0 | 6.1 | 0.00 | 0.00 | 0.00 | 84 | 1015.3 |
| 20260906103043 | 75 | 234 | 0.0 | 8.7 | 0.00 | 0.00 | 0.00 | 83 | 1015.2 |
| 20260906101558 | 75 | 235 | 0.0 | 9.6 | 0.00 | 0.00 | 0.00 | 83 | 1015.3 |
| 20260906100006 | 75 | 237 | 1.7 | 10.4 | 0.00 | 0.00 | 0.00 | 84 | 1015.4 |
| 20260906094535 | 74 | 240 | 1.7 | 11.3 | 0.00 | 0.00 | 0.00 | 84 | 1015.5 |
| 20260906093041 | 74 | 254 | 0.9 | 8.7 | 0.00 | 0.00 | 0.00 | 84 | 1015.3 |
| 20260906091551 | 74 | 257 | 1.7 | 8.7 | 0.00 | 0.00 | 0.00 | 84 | 1015.2 |
| 20260906090007 | 74 | 259 | 0.0 | 0.0 | 0.00 | 0.00 | 0.00 | 84 | 1015.3 |
| 20260906084521 | 74 | 259 | 0.0 | 8.7 | 0.00 | 0.00 | 0.00 | 84 | 1015.2 |
| 20260906083038 | 74 | 259 | 0.9 | 7.8 | 0.00 | 0.00 | 0.00 | 84 | 1015.2 |
| 20260906081544 | 74 | 260 | 0.9 | 8.7 | 0.00 | 0.00 | 0.00 | 84 | 1015.3 |
| 20260906080107 | 74 | 265 | 0.0 | 10.4 | 0.00 | 0.00 | 0.00 | 82 | 1015.4 |
| 20260906074504 | 75 | 273 | 0.0 | 5.2 | 0.00 | 0.00 | 0.00 | 82 | 1015.4 |
| 20260906073013 | 75 | 273 | 0.0 | 0.9 | 0.00 | 0.00 | 0.00 | 82 | 1015.6 |
| 20260906071532 | 75 | 273 | 0.0 | 0.0 | 0.00 | 0.00 | 0.00 | 81 | 1015.8 |
| 20260906070039 | 75 | 273 | 0.0 | 8.7 | 0.00 | 0.00 | 0.00 | 82 | 1016.0 |
| 20260906064548 | 76 | 273 | 0.0 | 2.6 | 0.00 | 0.00 | 0.00 | 82 | 1015.7 |
| 20260906063059 | 76 | 273 | 0.0 | 0.0 | 0.00 | 0.00 | 0.00 | 81 | 1015.7 |
| 20260906061507 | 76 | 273 | 0.0 | 0.0 | 0.00 | 0.00 | 0.00 | 81 | 1015.8 |
| 20260906060033 | 76 | 273 | 0.0 | 0.9 | 0.00 | 0.00 | 0.00 | 81 | 1016.0 |
| 20260906054538 | 77 | 274 | 0.0 | 3.5 | 0.00 | 0.00 | 0.00 | 80 | 1016.4 |
| 20260906053047 | 78 | 275 | 0.0 | 1.7 | 0.00 | 0.00 | 0.00 | 79 | 1016.5 |
| 20260906051535 | 79 | 273 | 0.0 | 7.8 | 0.00 | 0.00 | 0.00 | 76 | 1016.2 |
| 20260906050049 | 80 | 280 | 0.0 | 7.8 | 0.00 | 0.00 | 0.00 | 72 | 1016.3 |
| 20260906044513 | 81 | 280 | 0.0 | 7.8 | 0.00 | 0.00 | 0.00 | 70 | 1016.0 |
| 20260906043032 | 81 | 282 | 0.0 | 0.9 | 0.00 | 0.00 | 0.00 | 71 | 1016.2 |
| 20260906041544 | 82 | 281 | 0.0 | 0.9 | 0.00 | 0.00 | 0.00 | 70 | 1016.2 |
| 20260906040058 | 82 | 281 | 0.0 | 0.0 | 0.00 | 0.00 | 0.00 | 68 | 1015.5 |
| 20260906034510 | 82 | 281 | 0.0 | 0.0 | 0.00 | 0.00 | 0.00 | 67 | 1015.7 |
| 20260906033024 | 82 | 281 | 0.0 | 0.0 | 0.00 | 0.00 | 0.00 | 67 | 1015.7 |
| 20260906031534 | 82 | 281 | 0.0 | 0.0 | 0.00 | 0.00 | 0.00 | 67 | 1015.6 |
| 20260906030042 | 83 | 281 | 0.0 | 0.0 | 0.00 | 0.00 | 0.00 | 67 | 1015.5 |
| 20260906024551 | 83 | 281 | 0.0 | 0.0 | 0.00 | 0.00 | 0.00 | 65 | 1015.3 |
| 20260906023049 | 83 | 281 | 0.0 | 0.0 | 0.00 | 0.00 | 0.00 | 65 | 1015.0 |
| 20260906021606 | 83 | 281 | 0.0 | 0.0 | 0.00 | 0.00 | 0.00 | 64 | 1014.7 |
| 20260906020010 | 84 | 281 | 0.0 | 0.0 | 0.00 | 0.00 | 0.00 | 64 | 1014.3 |
| 20260906014540 | 84 | 281 | 0.0 | 0.0 | 0.00 | 0.00 | 0.00 | 62 | 1014.5 |
| 20260906013039 | 85 | 281 | 0.0 | 2.6 | 0.00 | 0.00 | 0.00 | 61 | 1014.4 |
| 20260906011546 | 87 | 281 | 0.0 | 6.1 | 0.00 | 0.00 | 0.00 | 60 | 1014.5 |
| 20260906010113 | 89 | 281 | 0.0 | 8.7 | 0.00 | 0.00 | 0.00 | 59 | 1014.7 |
| 20260906004503 | 92 | 285 | 0.0 | 0.0 | 0.00 | 0.00 | 0.00 | 55 | 1014.5 |
| 20260906003029 | 93 | 285 | 0.0 | 0.9 | 0.00 | 0.00 | 0.00 | 52 | 1014.3 |
| 20260906001541 | 94 | 285 | 0.0 | 0.9 | 0.00 | 0.00 | 0.00 | 50 | 1014.4 |
| 20260905234510 | 97 | 285 | 0.0 | 4.3 | 0.00 | 0.00 | 0.00 | 45 | 1014.2 |
| 20260905233029 | 97 | 284 | 0.0 | 0.9 | 0.00 | 0.00 | 0.00 | 45 | 1014.2 |
| 20260905231538 | 99 | 285 | 0.0 | 4.3 | 0.00 | 0.00 | 0.00 | 42 | 1014.1 |
| 20260905230055 | 99 | 285 | 0.0 | 0.9 | 0.00 | 0.00 | 0.00 | 42 | 1014.1 |
| 20260905224509 | 99 | 284 | 0.0 | 2.6 | 0.00 | 0.00 | 0.00 | 41 | 1014.1 |
| 20260905223024 | 100 | 284 | 0.0 | 0.9 | 0.00 | 0.00 | 0.00 | 41 | 1014.2 |
| 20260905221546 | 100 | 285 | 0.9 | 9.6 | 0.00 | 0.00 | 0.00 | 41 | 1014.2 |
| 20260905220054 | 100 | 284 | 0.0 | 7.0 | 0.00 | 0.00 | 0.00 | 40 | 1014.1 |
| 20260905214510 | 101 | 286 | 0.9 | 8.7 | 0.00 | 0.00 | 0.00 | 39 | 1014.2 |
| 20260905213035 | 101 | 288 | 0.0 | 3.5 | 0.00 | 0.00 | 0.00 | 38 | 1014.3 |
| 20260905211538 | 100 | 288 | 0.0 | 2.6 | 0.00 | 0.00 | 0.00 | 39 | 1014.3 |
| 20260905210050 | 102 | 289 | 0.0 | 8.7 | 0.00 | 0.00 | 0.00 | 38 | 1014.5 |
| 20260905204502 | 102 | 288 | 0.0 | 3.5 | 0.00 | 0.00 | 0.00 | 38 | 1014.6 |
| 20260905203008 | 102 | 288 | 0.0 | 2.6 | 0.00 | 0.00 | 0.00 | 40 | 1014.8 |
| 20260905201521 | 102 | 294 | 0.0 | 1.7 | 0.00 | 0.00 | 0.00 | 39 | 1015.0 |
| 20260905200047 | 101 | 293 | 0.0 | 3.5 | 0.00 | 0.00 | 0.00 | 38 | 1015.4 |
| 20260905194537 | 101 | 293 | 0.0 | 0.0 | 0.00 | 0.00 | 0.00 | 39 | 1015.6 |
| 20260905193105 | 100 | 293 | 0.0 | 0.9 | 0.00 | 0.00 | 0.00 | 40 | 1015.7 |
| 20260905191510 | 99 | 293 | 0.0 | 0.0 | 0.00 | 0.00 | 0.00 | 43 | 1015.7 |
| 20260905190032 | 100 | 294 | 0.0 | 0.0 | 0.00 | 0.00 | 0.00 | 41 | 1016.1 |
| 20260905184536 | 100 | 294 | 0.0 | 6.1 | 0.00 | 0.00 | 0.00 | 43 | 1016.3 |
| 20260905183042 | 98 | 293 | 0.0 | 1.7 | 0.00 | 0.00 | 0.00 | 45 | 1016.5 |
| 20260905181550 | 101 | 293 | 0.0 | 2.6 | 0.00 | 0.00 | 0.00 | 41 | 1016.9 |
| 20260905180100 | 101 | 293 | 0.0 | 0.9 | 0.00 | 0.00 | 0.00 | 42 | 1017.0 |
| 20260905174508 | 101 | 293 | 0.0 | 0.9 | 0.00 | 0.00 | 0.00 | 43 | 1017.1 |
| 20260905173029 | 99 | 293 | 0.0 | 1.7 | 0.00 | 0.00 | 0.00 | 46 | 1017.2 |
| 20260905171535 | 98 | 293 | 0.0 | 0.9 | 0.00 | 0.00 | 0.00 | 49 | 1017.2 |
| 20260905170047 | 97 | 293 | 0.0 | 0.9 | 0.00 | 0.00 | 0.00 | 49 | 1017.4 |
| 20260905164547 | 95 | 293 | 0.0 | 2.6 | 0.00 | 0.00 | 0.00 | 51 | 1017.6 |
| 20260905163049 | 96 | 293 | 0.0 | 0.9 | 0.00 | 0.00 | 0.00 | 51 | 1017.8 |
| 20260905161552 | 95 | 293 | 0.0 | 0.9 | 0.00 | 0.00 | 0.00 | 53 | 1017.9 |
| 20260905160005 | 95 | 292 | 0.0 | 0.0 | 0.00 | 0.00 | 0.00 | 54 | 1018.2 |
| 20260905154502 | 92 | 292 | 0.0 | 0.9 | 0.00 | 0.00 | 0.00 | 56 | 1018.2 |
| 20260905153015 | 88 | 292 | 0.0 | 0.0 | 0.00 | 0.00 | 0.00 | 68 | 1018.2 |
| 20260905151526 | 86 | 292 | 0.0 | 0.0 | 0.00 | 0.00 | 0.00 | 71 | 1018.4 |
| 20260905150032 | 85 | 292 | 0.0 | 0.0 | 0.00 | 0.00 | 0.00 | 72 | 1018.3 |
| 20260905144541 | 84 | 291 | 0.0 | 0.9 | 0.00 | 0.00 | 0.00 | 74 | 1018.4 |
| 20260905143047 | 82 | 291 | 0.0 | 0.0 | 0.00 | 0.00 | 0.00 | 79 | 1018.4 |
| 20260905141537 | 81 | 291 | 0.0 | 0.0 | 0.00 | 0.00 | 0.00 | 81 | 1018.3 |
| 20260905140051 | 80 | 292 | 0.0 | 0.9 | 0.00 | 0.00 | 0.00 | 82 | 1018.3 |
| 20260905134608 | 79 | 292 | 0.0 | 0.0 | 0.00 | 0.00 | 0.00 | 83 | 1018.3 |
| 20260905133011 | 78 | 291 | 0.0 | 0.0 | 0.00 | 0.00 | 0.00 | 85 | 1018.3 |
| 20260905131538 | 77 | 292 | 0.0 | 0.9 | 0.00 | 0.00 | 0.00 | 85 | 1018.4 |
| 20260905130028 | 77 | 291 | 0.0 | 0.0 | 0.00 | 0.00 | 0.00 | 85 | 1018.4 |
| 20260905124543 | 77 | 291 | 0.0 | 0.0 | 0.00 | 0.00 | 0.00 | 85 | 1018.5 |